Terminal Aerodrome Forecast
Issued by NWS

Home | Current Version | Previous Version | Text Only | Print | Product List | Glossary On
Versions: 1 2 3 4 5 6 7 8 9 10 11 12 13 14 15
000
FTUS44 KTSA 211120
TAFFYV
TAF
KFYV 211120Z 2112/2212 19006KT P6SM SKC
     FM211600 24009KT P6SM BKN250
     FM211900 34009KT P6SM BKN250
     FM212200 35010G18KT P6SM BKN250
     FM220200 36007KT P6SM SCT250=

USA.gov is the U.S. government's official web portal to all federal, state and local government web resources and services.